Norrland — C4KF2 — position and weather

sailwx.info

Track history (hours):
 
Tides and Currents Weather Stations Pressure Air Temp Water Temp Dewpoint Dewpoint Depression Visibility Wind Speed Wind Dir Waves Ship Positions

Norrland

Last reported at 2017-Jun-26 03:58 UTC. Time now 2017-Jun-26 18:55 UTC.
Position N 37°11' E 005°49'.

Length 118 m; draft 7 m.

Type: Cargo ship. MMSI: 212521000.

Date/timePositionNaut miles runAvg speedWind from/ knotsBaromVisibWave heightAir tempDewpointWater temp
2017-Jun-26 03:58N 37°11' E 005°49'510.7
2017-Jun-26 03:30N 37°11' E 005°43'510.5
2017-Jun-26 03:00N 37°10' E 005°36'610.8
2017-Jun-26 02:28N 37°10' E 005°29'510.8
2017-Jun-26 02:00N 37°10' E 005°22'2010.1
2017-Jun-26 00:02N 37°08' E 004°58'4 9.7
2017-Jun-25 23:39N 37°08' E 004°53'54 9.8
2017-Jun-25 18:09N 37°03' E 003°45'410.1
2017-Jun-25 17:43N 37°03' E 003°40'310.0
2017-Jun-25 17:27N 37°03' E 003°37'510.0
2017-Jun-25 17:00N 37°02' E 003°31'5 9.9
2017-Jun-25 16:30N 37°02' E 003°25'510.0
2017-Jun-25 16:00N 37°01' E 003°19'510.0
2017-Jun-25 15:30N 37°01' E 003°12'5 9.8
2017-Jun-25 15:00N 37°01' E 003°06'510.0
2017-Jun-25 14:30N 37°00' E 003°00'1410.3
2017-Jun-25 13:10N 36°58' E 002°43'210.2
2017-Jun-25 13:00N 36°58' E 002°41'510.2
2017-Jun-25 12:29N 36°57' E 002°35'510.2
2017-Jun-25 12:00N 36°56' E 002°28'510.1
2017-Jun-25 11:30N 36°56' E 002°22'510.2
2017-Jun-25 11:00N 36°55' E 002°16'610.1
2017-Jun-25 10:24N 36°54' E 002°08'410.2
2017-Jun-25 10:00N 36°53' E 002°03'510.2
2017-Jun-25 09:30N 36°53' E 001°57'510.2
2017-Jun-25 09:00N 36°52' E 001°51'510.2
2017-Jun-25 08:30N 36°51' E 001°44'610.1
2017-Jun-25 07:57N 36°51' E 001°37'610.2
2017-Jun-25 07:23N 36°50' E 001°30'410.0
2017-Jun-25 06:57N 36°50' E 001°25'610.2
2017-Jun-25 06:23N 36°48' E 001°18'410.1
2017-Jun-25 06:00N 36°47' E 001°13'510.3
2017-Jun-25 05:30N 36°46' E 001°07'510.5
2017-Jun-25 05:00N 36°45' E 001°00'5 9.7
2017-Jun-25 04:29N 36°45' E 000°54'5 9.5
2017-Jun-25 04:00N 36°44' E 000°48'5 9.6
2017-Jun-25 03:28N 36°44' E 000°42'5 9.8
2017-Jun-25 03:00N 36°43' E 000°36'510.0
2017-Jun-25 02:30N 36°42' E 000°30'510.5
2017-Jun-25 02:00N 36°41' E 000°24'510.5
2017-Jun-25 01:30N 36°40' E 000°17'510.4
2017-Jun-25 01:00N 36°40' E 000°11'610.3
2017-Jun-25 00:28N 36°39' E 000°04'710.4
2017-Jun-24 23:49N 36°38' W 000°04'410.7
2017-Jun-24 23:27N 36°37' W 000°09'510.6
2017-Jun-24 22:58N 36°36' W 000°15'510.5
2017-Jun-24 22:30N 36°36' W 000°21'510.3
2017-Jun-24 22:00N 36°35' W 000°28'610.1
2017-Jun-24 21:24N 36°34' W 000°35'410.0
2017-Jun-24 21:00N 36°33' W 000°40'510.0
2017-Jun-24 20:30N 36°32' W 000°46'8 9.8
2017-Jun-24 19:44N 36°31' W 000°56'3 9.6
2017-Jun-24 19:22N 36°31' W 000°60'2810.3
2017-Jun-24 16:39N 36°27' W 001°35'210.7
2017-Jun-24 16:25N 36°26' W 001°37'610.4
2017-Jun-24 15:48N 36°25' W 001°45'510.0
2017-Jun-24 15:19N 36°24' W 001°51'410.0
2017-Jun-24 14:56N 36°24' W 001°56'510.2
2017-Jun-24 14:27N 36°23' W 002°02'13510.5
2017-Jun-24 01:35N 36°03' W 004°47'1611.9
2017-Jun-24 00:12N 36°00' W 005°07'312.4
2017-Jun-23 23:56N 35°60' W 005°11'512.6
2017-Jun-23 23:30N 35°59' W 005°18'612.1
2017-Jun-23 23:01N 35°58' W 005°25'611.3
2017-Jun-23 22:30N 35°56' W 005°32'510.1
2017-Jun-23 22:00N 35°55' W 005°38'7 8.7
2017-Jun-23 21:10N 35°55' W 005°47'2 8.6
2017-Jun-23 20:59N 35°55' W 005°49'9 9.6
2017-Jun-23 20:03N 35°54' W 005°60'110.7
2017-Jun-23 20:00N 35°54' W 006°00'5810.9
2017-Jun-23 14:39N 36°05' W 007°11'210.8
2017-Jun-23 14:29N 36°06' W 007°13'1110.7
2017-Jun-23 13:27N 36°09' W 007°26'1810.8
2017-Jun-23 11:50N 36°14' W 007°47'410.5
2017-Jun-23 11:29N 36°15' W 007°52'510.4
2017-Jun-23 11:00N 36°16' W 007°58'2910.6
2017-Jun-23 08:13N 36°24' W 008°33'210.8
2017-Jun-23 08:00N 36°25' W 008°36'510.7
2017-Jun-23 07:30N 36°26' W 008°42'510.5
2017-Jun-23 07:01N 36°28' W 008°48'510.4
2017-Jun-23 06:30N 36°29' W 008°54'510.4
2017-Jun-23 06:01N 36°30' W 009°01'510.8
2017-Jun-23 05:30N 36°32' W 009°07'510.6
2017-Jun-23 05:01N 36°33' W 009°13'5 9.2
2017-Jun-23 04:31N 36°35' W 009°19'5 9.7
2017-Jun-23 04:01N 36°39' W 009°23'5 9.7
2017-Jun-23 03:31N 36°42' W 009°27'7 9.7
2017-Jun-23 02:46N 36°48' W 009°33'3 9.8
2017-Jun-23 02:25N 36°51' W 009°34'4 9.7
2017-Jun-23 02:01N 36°55' W 009°35'7 9.6
2017-Jun-23 01:19N 37°02' W 009°37'28 9.8
2017-Jun-22 22:32N 37°28' W 009°44'010.1
2017-Jun-22 22:31N 37°29' W 009°45'5 9.9
2017-Jun-22 22:00N 37°33' W 009°46'510.2
2017-Jun-22 21:31N 37°38' W 009°48'510.3
2017-Jun-22 21:00N 37°43' W 009°49'510.3
2017-Jun-22 20:31N 37°48' W 009°50'610.3
2017-Jun-22 19:55N 37°54' W 009°52'410.3
2017-Jun-22 19:30N 37°58' W 009°54'510.6
2017-Jun-22 19:01N 38°04' W 009°55'510.4
2017-Jun-22 18:31N 38°09' W 009°57'510.4
2017-Jun-22 18:01N 38°14' W 009°58'510.7
2017-Jun-22 17:31N 38°19' W 009°60'610.4
2017-Jun-22 16:54N 38°25' W 010°01'410.2
2017-Jun-22 16:28N 38°29' W 010°02'5 9.9
2017-Jun-22 16:00N 38°34' W 010°04'5 9.9
2017-Jun-22 15:30N 38°39' W 010°05'5 9.6
2017-Jun-22 15:00N 38°43' W 010°06'5 9.7
2017-Jun-22 14:30N 38°48' W 010°06'10 9.9
2017-Jun-22 13:30N 38°58' W 010°06'510.0
2017-Jun-22 13:00N 39°03' W 010°06'5 9.6
2017-Jun-22 12:30N 39°08' W 010°06'5 9.6
2017-Jun-22 12:01N 39°13' W 010°06'510.2
2017-Jun-22 11:31N 39°18' W 010°06'510.5
2017-Jun-22 11:00N 39°23' W 010°06'510.1
2017-Jun-22 10:31N 39°28' W 010°06'510.1
2017-Jun-22 09:58N 39°34' W 010°06'52810.5
2017-Jun-20 07:34N 47°59' W 006°35'911.1
2017-Jun-20 06:43N 48°07' W 006°27'4511.9
2017-Jun-20 02:59N 48°47' W 005°56'511.4
2017-Jun-20 02:30N 48°52' W 005°52'1610.4
2017-Jun-20 01:01N 49°01' W 005°34'010.2
2017-Jun-20 01:00N 49°02' W 005°34'510.3
2017-Jun-20 00:30N 49°05' W 005°28'610.0
2017-Jun-19 23:53N 49°11' W 005°24'810.2
2017-Jun-19 23:08N 49°17' W 005°17'210.3
2017-Jun-19 22:57N 49°19' W 005°16'610.4
2017-Jun-19 22:24N 49°23' W 005°10'910.7
2017-Jun-19 21:35N 49°31' W 005°03'310.9
2017-Jun-19 21:18N 49°33' W 004°60'311.1
2017-Jun-19 20:59N 49°36' W 004°57'911.4
2017-Jun-19 20:14N 49°43' W 004°49'311.6
2017-Jun-19 19:59N 49°45' W 004°47'611.7
2017-Jun-19 19:30N 49°50' W 004°42'611.8
2017-Jun-19 19:00N 49°55' W 004°37'611.7
2017-Jun-19 18:31N 49°60' W 004°32'611.7
2017-Jun-19 18:01N 50°04' W 004°26'611.6
2017-Jun-19 17:30N 50°09' W 004°21'611.5
2017-Jun-19 17:01N 50°14' W 004°16'611.2
2017-Jun-19 16:28N 50°19' W 004°11'3 7.1
2017-Jun-19 16:01N 50°22' W 004°08'0 0.8
2017-Jun-19 15:28N 50°22' W 004°08'0 0.0
2017-Jun-19 14:58N 50°22' W 004°08'0 0.0
2017-Jun-19 13:58N 50°22' W 004°08'0 0.0
2017-Jun-19 13:28N 50°22' W 004°08'0 0.0
2017-Jun-19 12:58N 50°22' W 004°08'0 0.0
2017-Jun-19 12:28N 50°22' W 004°08'0 0.0
2017-Jun-19 11:58N 50°22' W 004°08'0 0.0
2017-Jun-19 11:28N 50°22' W 004°08'0 0.0
2017-Jun-19 10:58N 50°22' W 004°08'0 0.0
2017-Jun-19 10:28N 50°22' W 004°08'0 0.0
2017-Jun-19 09:58N 50°22' W 004°08'0 0.0
2017-Jun-19 09:28N 50°22' W 004°08'0 0.0
2017-Jun-19 08:58N 50°22' W 004°08'0 0.0
2017-Jun-19 08:28N 50°22' W 004°08'0 0.0
2017-Jun-19 07:58N 50°22' W 004°08'0 0.0
2017-Jun-19 07:28N 50°22' W 004°08'0 0.0
2017-Jun-19 06:58N 50°22' W 004°08'0 0.0
2017-Jun-19 06:28N 50°22' W 004°08'0 0.0
2017-Jun-19 05:58N 50°22' W 004°08'0 0.0
2017-Jun-19 05:28N 50°22' W 004°08'0 0.0
2017-Jun-19 04:58N 50°22' W 004°08'0 0.0
2017-Jun-19 04:28N 50°22' W 004°08'0 0.0
2017-Jun-19 03:58N 50°22' W 004°08'0 0.0
2017-Jun-19 03:28N 50°22' W 004°08'0 0.0
2017-Jun-19 02:58N 50°22' W 004°08'0 0.0
2017-Jun-19 02:28N 50°22' W 004°08'0 0.0
2017-Jun-19 01:58N 50°22' W 004°08'0 0.0
2017-Jun-19 01:28N 50°22' W 004°08'0 0.0
2017-Jun-19 00:58N 50°22' W 004°08'0 0.0
2017-Jun-19 00:28N 50°22' W 004°08'0 0.0
2017-Jun-18 23:58N 50°22' W 004°08'0 0.0
2017-Jun-18 23:28N 50°22' W 004°08'0 0.0
2017-Jun-18 22:58N 50°22' W 004°08'0 0.0
2017-Jun-18 22:28N 50°22' W 004°08'0 0.0
2017-Jun-18 21:58N 50°22' W 004°08'0 0.0
2017-Jun-18 21:28N 50°22' W 004°08'0 0.0
2017-Jun-18 20:58N 50°22' W 004°08'0 0.0
2017-Jun-18 20:28N 50°22' W 004°08'0 0.0
2017-Jun-18 19:58N 50°22' W 004°08'0 0.0
2017-Jun-18 19:28N 50°22' W 004°08'0 0.0
2017-Jun-18 18:58N 50°22' W 004°08'0 0.0
2017-Jun-18 18:28N 50°22' W 004°08'0 0.0
2017-Jun-18 17:58N 50°22' W 004°08'0 0.0
2017-Jun-18 17:28N 50°22' W 004°08'0 0.0
2017-Jun-18 16:58N 50°22' W 004°08'0 0.0
2017-Jun-18 16:28N 50°22' W 004°08'0 0.0
2017-Jun-18 15:58N 50°22' W 004°08'0 0.0
2017-Jun-18 15:28N 50°22' W 004°08'0 0.0
2017-Jun-18 14:58N 50°22' W 004°08'0 0.0
2017-Jun-18 13:58N 50°22' W 004°08'0 0.0
2017-Jun-18 13:28N 50°22' W 004°08'0 0.0
2017-Jun-18 12:58N 50°22' W 004°08'0 0.0
2017-Jun-18 12:28N 50°22' W 004°08'0 0.0
2017-Jun-18 11:58N 50°22' W 004°08'0 0.0
2017-Jun-18 11:30N 50°22' W 004°08'1 1.6
2017-Jun-18 11:00N 50°21' W 004°08'2 4.5
2017-Jun-18 10:30N 50°20' W 004°11'0 0.2
2017-Jun-18 09:54N 50°20' W 004°11'0 0.1
2017-Jun-18 09:30N 50°20' W 004°11'0 0.1
2017-Jun-18 09:00N 50°20' W 004°11'0 0.1
2017-Jun-18 08:30N 50°20' W 004°11'0 0.0
2017-Jun-18 07:15N 50°20' W 004°11'0 0.0
2017-Jun-18 07:00N 50°20' W 004°11'0 0.0
2017-Jun-18 06:30N 50°20' W 004°11'0 0.1
2017-Jun-18 06:00N 50°20' W 004°11'0 0.0
2017-Jun-18 05:30N 50°20' W 004°11'0 0.0
2017-Jun-18 05:00N 50°20' W 004°11'0 0.0
2017-Jun-18 04:30N 50°20' W 004°11'0 0.0
2017-Jun-18 04:00N 50°20' W 004°11'0 0.0
2017-Jun-18 03:30N 50°20' W 004°11'0 0.0
2017-Jun-18 03:00N 50°20' W 004°11'0 0.0
2017-Jun-18 02:30N 50°20' W 004°11'0 0.0
2017-Jun-18 01:54N 50°20' W 004°11'0 0.1
2017-Jun-18 01:30N 50°20' W 004°11'0 0.0
2017-Jun-18 01:00N 50°20' W 004°11'0 0.0
2017-Jun-18 00:24N 50°20' W 004°11'0 0.0
2017-Jun-18 00:00N 50°20' W 004°11'0 0.0
2017-Jun-17 23:30N 50°20' W 004°11'0 0.0
2017-Jun-17 23:00N 50°20' W 004°11'0 0.0
2017-Jun-17 22:30N 50°20' W 004°11'0 0.0
2017-Jun-17 22:00N 50°20' W 004°11'0 0.0
2017-Jun-17 21:27N 50°20' W 004°11'0 0.0
2017-Jun-17 20:54N 50°20' W 004°11'0 0.0
2017-Jun-17 20:12N 50°20' W 004°11'0 0.0
2017-Jun-17 19:51N 50°20' W 004°11'0 0.1
2017-Jun-17 19:30N 50°20' W 004°11'0 0.1
2017-Jun-17 19:00N 50°20' W 004°11'0 0.1
2017-Jun-17 18:30N 50°20' W 004°11'0 0.1
2017-Jun-17 18:00N 50°20' W 004°11'1 2.4
2017-Jun-17 17:28N 50°18' W 004°11'4 8.9
2017-Jun-17 17:00N 50°18' W 004°17'8 9.0
2017-Jun-17 16:04N 50°18' W 004°30'1 8.9
2017-Jun-17 16:00N 50°18' W 004°31'5 9.1
2017-Jun-17 15:30N 50°18' W 004°38'2 0.3
2017-Jun-17 08:09N 50°21' W 004°38'0 0.0
2017-Jun-17 07:54N 50°21' W 004°38'0 0.0
2017-Jun-17 06:30N 50°21' W 004°38'0 0.0
2017-Jun-17 05:54N 50°21' W 004°38'0 0.0
2017-Jun-17 05:21N 50°21' W 004°38'0 0.0
2017-Jun-17 04:54N 50°21' W 004°38'0 0.0
2017-Jun-17 04:15N 50°21' W 004°38'0 0.0
2017-Jun-17 03:57N 50°21' W 004°38'0 0.0
2017-Jun-17 02:54N 50°21' W 004°38'0 0.0
2017-Jun-17 02:24N 50°21' W 004°38'0 0.0
2017-Jun-16 22:30N 50°21' W 004°38'0 0.0
2017-Jun-16 21:42N 50°21' W 004°38'0 0.0
2017-Jun-16 21:27N 50°21' W 004°38'0 0.0
2017-Jun-16 20:00N 50°21' W 004°38'0 0.0
2017-Jun-16 19:30N 50°21' W 004°38'0 0.0
2017-Jun-16 18:18N 50°21' W 004°38'0 0.0
2017-Jun-16 17:48N 50°21' W 004°38'0 0.0
2017-Jun-16 17:30N 50°21' W 004°38'0 0.0
2017-Jun-16 17:00N 50°21' W 004°38'0 0.0
2017-Jun-16 16:30N 50°21' W 004°38'0 0.0
2017-Jun-16 14:39N 50°21' W 004°38'0 0.0
2017-Jun-16 14:30N 50°21' W 004°38'0 0.0
2017-Jun-16 04:54N 50°21' W 004°38'1 1.1
2017-Jun-16 04:11N 50°20' W 004°38'  
Track history (hours):
 
Tides and Currents Weather Stations Pressure Air Temp Water Temp Dewpoint Dewpoint Depression Visibility Wind Speed Wind Dir Waves Ship Positions

Norrland

Last reported at 2017-Jun-26 03:58 UTC. Time now 2017-Jun-26 18:55 UTC.
Position N 37°11' E 005°49'.

Length 118 m; draft 7 m.

Type: Cargo ship. MMSI: 212521000.

Date/timePositionNaut miles runAvg speedWind from/ knotsBaromVisibWave heightAir tempDewpointWater temp
2017-Jun-26 03:58N 37°11' E 005°49'510.7
2017-Jun-26 03:30N 37°11' E 005°43'510.5
2017-Jun-26 03:00N 37°10' E 005°36'610.8
2017-Jun-26 02:28N 37°10' E 005°29'510.8
2017-Jun-26 02:00N 37°10' E 005°22'2010.1
2017-Jun-26 00:02N 37°08' E 004°58'4 9.7
2017-Jun-25 23:39N 37°08' E 004°53'54 9.8
2017-Jun-25 18:09N 37°03' E 003°45'410.1
2017-Jun-25 17:43N 37°03' E 003°40'310.0
2017-Jun-25 17:27N 37°03' E 003°37'510.0
2017-Jun-25 17:00N 37°02' E 003°31'5 9.9
2017-Jun-25 16:30N 37°02' E 003°25'510.0
2017-Jun-25 16:00N 37°01' E 003°19'510.0
2017-Jun-25 15:30N 37°01' E 003°12'5 9.8
2017-Jun-25 15:00N 37°01' E 003°06'510.0
2017-Jun-25 14:30N 37°00' E 003°00'1410.3
2017-Jun-25 13:10N 36°58' E 002°43'210.2
2017-Jun-25 13:00N 36°58' E 002°41'510.2
2017-Jun-25 12:29N 36°57' E 002°35'510.2
2017-Jun-25 12:00N 36°56' E 002°28'510.1
2017-Jun-25 11:30N 36°56' E 002°22'510.2
2017-Jun-25 11:00N 36°55' E 002°16'610.1
2017-Jun-25 10:24N 36°54' E 002°08'410.2
2017-Jun-25 10:00N 36°53' E 002°03'510.2
2017-Jun-25 09:30N 36°53' E 001°57'510.2
2017-Jun-25 09:00N 36°52' E 001°51'510.2
2017-Jun-25 08:30N 36°51' E 001°44'610.1
2017-Jun-25 07:57N 36°51' E 001°37'610.2
2017-Jun-25 07:23N 36°50' E 001°30'410.0
2017-Jun-25 06:57N 36°50' E 001°25'610.2
2017-Jun-25 06:23N 36°48' E 001°18'410.1
2017-Jun-25 06:00N 36°47' E 001°13'510.3
2017-Jun-25 05:30N 36°46' E 001°07'510.5
2017-Jun-25 05:00N 36°45' E 001°00'5 9.7
2017-Jun-25 04:29N 36°45' E 000°54'5 9.5
2017-Jun-25 04:00N 36°44' E 000°48'5 9.6
2017-Jun-25 03:28N 36°44' E 000°42'5 9.8
2017-Jun-25 03:00N 36°43' E 000°36'510.0
2017-Jun-25 02:30N 36°42' E 000°30'510.5
2017-Jun-25 02:00N 36°41' E 000°24'510.5
2017-Jun-25 01:30N 36°40' E 000°17'510.4
2017-Jun-25 01:00N 36°40' E 000°11'610.3
2017-Jun-25 00:28N 36°39' E 000°04'710.4
2017-Jun-24 23:49N 36°38' W 000°04'410.7
2017-Jun-24 23:27N 36°37' W 000°09'510.6
2017-Jun-24 22:58N 36°36' W 000°15'510.5
2017-Jun-24 22:30N 36°36' W 000°21'510.3
2017-Jun-24 22:00N 36°35' W 000°28'610.1
2017-Jun-24 21:24N 36°34' W 000°35'410.0
2017-Jun-24 21:00N 36°33' W 000°40'510.0
2017-Jun-24 20:30N 36°32' W 000°46'8 9.8
2017-Jun-24 19:44N 36°31' W 000°56'3 9.6
2017-Jun-24 19:22N 36°31' W 000°60'2810.3
2017-Jun-24 16:39N 36°27' W 001°35'210.7
2017-Jun-24 16:25N 36°26' W 001°37'610.4
2017-Jun-24 15:48N 36°25' W 001°45'510.0
2017-Jun-24 15:19N 36°24' W 001°51'410.0
2017-Jun-24 14:56N 36°24' W 001°56'510.2
2017-Jun-24 14:27N 36°23' W 002°02'13510.5
2017-Jun-24 01:35N 36°03' W 004°47'1611.9
2017-Jun-24 00:12N 36°00' W 005°07'312.4
2017-Jun-23 23:56N 35°60' W 005°11'512.6
2017-Jun-23 23:30N 35°59' W 005°18'612.1
2017-Jun-23 23:01N 35°58' W 005°25'611.3
2017-Jun-23 22:30N 35°56' W 005°32'510.1
2017-Jun-23 22:00N 35°55' W 005°38'7 8.7
2017-Jun-23 21:10N 35°55' W 005°47'2 8.6
2017-Jun-23 20:59N 35°55' W 005°49'9 9.6
2017-Jun-23 20:03N 35°54' W 005°60'110.7
2017-Jun-23 20:00N 35°54' W 006°00'5810.9
2017-Jun-23 14:39N 36°05' W 007°11'210.8
2017-Jun-23 14:29N 36°06' W 007°13'1110.7
2017-Jun-23 13:27N 36°09' W 007°26'1810.8
2017-Jun-23 11:50N 36°14' W 007°47'410.5
2017-Jun-23 11:29N 36°15' W 007°52'510.4
2017-Jun-23 11:00N 36°16' W 007°58'2910.6
2017-Jun-23 08:13N 36°24' W 008°33'210.8
2017-Jun-23 08:00N 36°25' W 008°36'510.7
2017-Jun-23 07:30N 36°26' W 008°42'510.5
2017-Jun-23 07:01N 36°28' W 008°48'510.4
2017-Jun-23 06:30N 36°29' W 008°54'510.4
2017-Jun-23 06:01N 36°30' W 009°01'510.8
2017-Jun-23 05:30N 36°32' W 009°07'510.6
2017-Jun-23 05:01N 36°33' W 009°13'5 9.2
2017-Jun-23 04:31N 36°35' W 009°19'5 9.7
2017-Jun-23 04:01N 36°39' W 009°23'5 9.7
2017-Jun-23 03:31N 36°42' W 009°27'7 9.7
2017-Jun-23 02:46N 36°48' W 009°33'3 9.8
2017-Jun-23 02:25N 36°51' W 009°34'4 9.7
2017-Jun-23 02:01N 36°55' W 009°35'7 9.6
2017-Jun-23 01:19N 37°02' W 009°37'28 9.8
2017-Jun-22 22:32N 37°28' W 009°44'010.1
2017-Jun-22 22:31N 37°29' W 009°45'5 9.9
2017-Jun-22 22:00N 37°33' W 009°46'510.2
2017-Jun-22 21:31N 37°38' W 009°48'510.3
2017-Jun-22 21:00N 37°43' W 009°49'510.3
2017-Jun-22 20:31N 37°48' W 009°50'610.3
2017-Jun-22 19:55N 37°54' W 009°52'410.3
2017-Jun-22 19:30N 37°58' W 009°54'510.6
2017-Jun-22 19:01N 38°04' W 009°55'510.4
2017-Jun-22 18:31N 38°09' W 009°57'510.4
2017-Jun-22 18:01N 38°14' W 009°58'510.7
2017-Jun-22 17:31N 38°19' W 009°60'610.4
2017-Jun-22 16:54N 38°25' W 010°01'410.2
2017-Jun-22 16:28N 38°29' W 010°02'5 9.9
2017-Jun-22 16:00N 38°34' W 010°04'5 9.9
2017-Jun-22 15:30N 38°39' W 010°05'5 9.6
2017-Jun-22 15:00N 38°43' W 010°06'5 9.7
2017-Jun-22 14:30N 38°48' W 010°06'10 9.9
2017-Jun-22 13:30N 38°58' W 010°06'510.0
2017-Jun-22 13:00N 39°03' W 010°06'5 9.6
2017-Jun-22 12:30N 39°08' W 010°06'5 9.6
2017-Jun-22 12:01N 39°13' W 010°06'510.2
2017-Jun-22 11:31N 39°18' W 010°06'510.5
2017-Jun-22 11:00N 39°23' W 010°06'510.1
2017-Jun-22 10:31N 39°28' W 010°06'510.1
2017-Jun-22 09:58N 39°34' W 010°06'52810.5
2017-Jun-20 07:34N 47°59' W 006°35'911.1
2017-Jun-20 06:43N 48°07' W 006°27'4511.9
2017-Jun-20 02:59N 48°47' W 005°56'511.4
2017-Jun-20 02:30N 48°52' W 005°52'1610.4
2017-Jun-20 01:01N 49°01' W 005°34'010.2
2017-Jun-20 01:00N 49°02' W 005°34'510.3
2017-Jun-20 00:30N 49°05' W 005°28'610.0
2017-Jun-19 23:53N 49°11' W 005°24'810.2
2017-Jun-19 23:08N 49°17' W 005°17'210.3
2017-Jun-19 22:57N 49°19' W 005°16'610.4
2017-Jun-19 22:24N 49°23' W 005°10'910.7
2017-Jun-19 21:35N 49°31' W 005°03'310.9
2017-Jun-19 21:18N 49°33' W 004°60'311.1
2017-Jun-19 20:59N 49°36' W 004°57'911.4
2017-Jun-19 20:14N 49°43' W 004°49'311.6
2017-Jun-19 19:59N 49°45' W 004°47'611.7
2017-Jun-19 19:30N 49°50' W 004°42'611.8
2017-Jun-19 19:00N 49°55' W 004°37'611.7
2017-Jun-19 18:31N 49°60' W 004°32'611.7
2017-Jun-19 18:01N 50°04' W 004°26'611.6
2017-Jun-19 17:30N 50°09' W 004°21'611.5
2017-Jun-19 17:01N 50°14' W 004°16'611.2
2017-Jun-19 16:28N 50°19' W 004°11'3 7.1
2017-Jun-19 16:01N 50°22' W 004°08'0 0.8
2017-Jun-19 15:28N 50°22' W 004°08'0 0.0
2017-Jun-19 14:58N 50°22' W 004°08'0 0.0
2017-Jun-19 13:58N 50°22' W 004°08'0 0.0
2017-Jun-19 13:28N 50°22' W 004°08'0 0.0
2017-Jun-19 12:58N 50°22' W 004°08'0 0.0
2017-Jun-19 12:28N 50°22' W 004°08'0 0.0
2017-Jun-19 11:58N 50°22' W 004°08'0 0.0
2017-Jun-19 11:28N 50°22' W 004°08'0 0.0
2017-Jun-19 10:58N 50°22' W 004°08'0 0.0
2017-Jun-19 10:28N 50°22' W 004°08'0 0.0
2017-Jun-19 09:58N 50°22' W 004°08'0 0.0
2017-Jun-19 09:28N 50°22' W 004°08'0 0.0
2017-Jun-19 08:58N 50°22' W 004°08'0 0.0
2017-Jun-19 08:28N 50°22' W 004°08'0 0.0
2017-Jun-19 07:58N 50°22' W 004°08'0 0.0
2017-Jun-19 07:28N 50°22' W 004°08'0 0.0
2017-Jun-19 06:58N 50°22' W 004°08'0 0.0
2017-Jun-19 06:28N 50°22' W 004°08'0 0.0
2017-Jun-19 05:58N 50°22' W 004°08'0 0.0
2017-Jun-19 05:28N 50°22' W 004°08'0 0.0
2017-Jun-19 04:58N 50°22' W 004°08'0 0.0
2017-Jun-19 04:28N 50°22' W 004°08'0 0.0
2017-Jun-19 03:58N 50°22' W 004°08'0 0.0
2017-Jun-19 03:28N 50°22' W 004°08'0 0.0
2017-Jun-19 02:58N 50°22' W 004°08'0 0.0
2017-Jun-19 02:28N 50°22' W 004°08'0 0.0
2017-Jun-19 01:58N 50°22' W 004°08'0 0.0
2017-Jun-19 01:28N 50°22' W 004°08'0 0.0
2017-Jun-19 00:58N 50°22' W 004°08'0 0.0
2017-Jun-19 00:28N 50°22' W 004°08'0 0.0
2017-Jun-18 23:58N 50°22' W 004°08'0 0.0
2017-Jun-18 23:28N 50°22' W 004°08'0 0.0
2017-Jun-18 22:58N 50°22' W 004°08'0 0.0
2017-Jun-18 22:28N 50°22' W 004°08'0 0.0
2017-Jun-18 21:58N 50°22' W 004°08'0 0.0
2017-Jun-18 21:28N 50°22' W 004°08'0 0.0
2017-Jun-18 20:58N 50°22' W 004°08'0 0.0
2017-Jun-18 20:28N 50°22' W 004°08'0 0.0
2017-Jun-18 19:58N 50°22' W 004°08'0 0.0
2017-Jun-18 19:28N 50°22' W 004°08'0 0.0
2017-Jun-18 18:58N 50°22' W 004°08'0 0.0
2017-Jun-18 18:28N 50°22' W 004°08'0 0.0
2017-Jun-18 17:58N 50°22' W 004°08'0 0.0
2017-Jun-18 17:28N 50°22' W 004°08'0 0.0
2017-Jun-18 16:58N 50°22' W 004°08'0 0.0
2017-Jun-18 16:28N 50°22' W 004°08'0 0.0
2017-Jun-18 15:58N 50°22' W 004°08'0 0.0
2017-Jun-18 15:28N 50°22' W 004°08'0 0.0
2017-Jun-18 14:58N 50°22' W 004°08'0 0.0
2017-Jun-18 13:58N 50°22' W 004°08'0 0.0
2017-Jun-18 13:28N 50°22' W 004°08'0 0.0
2017-Jun-18 12:58N 50°22' W 004°08'0 0.0
2017-Jun-18 12:28N 50°22' W 004°08'0 0.0
2017-Jun-18 11:58N 50°22' W 004°08'0 0.0
2017-Jun-18 11:30N 50°22' W 004°08'1 1.6
2017-Jun-18 11:00N 50°21' W 004°08'2 4.5
2017-Jun-18 10:30N 50°20' W 004°11'0 0.2
2017-Jun-18 09:54N 50°20' W 004°11'0 0.1
2017-Jun-18 09:30N 50°20' W 004°11'0 0.1
2017-Jun-18 09:00N 50°20' W 004°11'0 0.1
2017-Jun-18 08:30N 50°20' W 004°11'0 0.0
2017-Jun-18 07:15N 50°20' W 004°11'0 0.0
2017-Jun-18 07:00N 50°20' W 004°11'0 0.0
2017-Jun-18 06:30N 50°20' W 004°11'0 0.1
2017-Jun-18 06:00N 50°20' W 004°11'0 0.0
2017-Jun-18 05:30N 50°20' W 004°11'0 0.0
2017-Jun-18 05:00N 50°20' W 004°11'0 0.0
2017-Jun-18 04:30N 50°20' W 004°11'0 0.0
2017-Jun-18 04:00N 50°20' W 004°11'0 0.0
2017-Jun-18 03:30N 50°20' W 004°11'0 0.0
2017-Jun-18 03:00N 50°20' W 004°11'0 0.0
2017-Jun-18 02:30N 50°20' W 004°11'0 0.0
2017-Jun-18 01:54N 50°20' W 004°11'0 0.1
2017-Jun-18 01:30N 50°20' W 004°11'0 0.0
2017-Jun-18 01:00N 50°20' W 004°11'0 0.0
2017-Jun-18 00:24N 50°20' W 004°11'0 0.0
2017-Jun-18 00:00N 50°20' W 004°11'0 0.0
2017-Jun-17 23:30N 50°20' W 004°11'0 0.0
2017-Jun-17 23:00N 50°20' W 004°11'0 0.0
2017-Jun-17 22:30N 50°20' W 004°11'0 0.0
2017-Jun-17 22:00N 50°20' W 004°11'0 0.0
2017-Jun-17 21:27N 50°20' W 004°11'0 0.0
2017-Jun-17 20:54N 50°20' W 004°11'0 0.0
2017-Jun-17 20:12N 50°20' W 004°11'0 0.0
2017-Jun-17 19:51N 50°20' W 004°11'0 0.1
2017-Jun-17 19:30N 50°20' W 004°11'0 0.1
2017-Jun-17 19:00N 50°20' W 004°11'0 0.1
2017-Jun-17 18:30N 50°20' W 004°11'0 0.1
2017-Jun-17 18:00N 50°20' W 004°11'1 2.4
2017-Jun-17 17:28N 50°18' W 004°11'4 8.9
2017-Jun-17 17:00N 50°18' W 004°17'8 9.0
2017-Jun-17 16:04N 50°18' W 004°30'1 8.9
2017-Jun-17 16:00N 50°18' W 004°31'5 9.1
2017-Jun-17 15:30N 50°18' W 004°38'2 0.3
2017-Jun-17 08:09N 50°21' W 004°38'0 0.0
2017-Jun-17 07:54N 50°21' W 004°38'0 0.0
2017-Jun-17 06:30N 50°21' W 004°38'0 0.0
2017-Jun-17 05:54N 50°21' W 004°38'0 0.0
2017-Jun-17 05:21N 50°21' W 004°38'0 0.0
2017-Jun-17 04:54N 50°21' W 004°38'0 0.0
2017-Jun-17 04:15N 50°21' W 004°38'0 0.0
2017-Jun-17 03:57N 50°21' W 004°38'0 0.0
2017-Jun-17 02:54N 50°21' W 004°38'0 0.0
2017-Jun-17 02:24N 50°21' W 004°38'0 0.0
2017-Jun-16 22:30N 50°21' W 004°38'0 0.0
2017-Jun-16 21:42N 50°21' W 004°38'0 0.0
2017-Jun-16 21:27N 50°21' W 004°38'0 0.0
2017-Jun-16 20:00N 50°21' W 004°38'0 0.0
2017-Jun-16 19:30N 50°21' W 004°38'0 0.0
2017-Jun-16 18:18N 50°21' W 004°38'0 0.0
2017-Jun-16 17:48N 50°21' W 004°38'0 0.0
2017-Jun-16 17:30N 50°21' W 004°38'0 0.0
2017-Jun-16 17:00N 50°21' W 004°38'0 0.0
2017-Jun-16 16:30N 50°21' W 004°38'0 0.0
2017-Jun-16 14:39N 50°21' W 004°38'0 0.0
2017-Jun-16 14:30N 50°21' W 004°38'0 0.0
2017-Jun-16 04:54N 50°21' W 004°38'1 1.1
2017-Jun-16 04:11N 50°20' W 004°38'  

Dump ship's entire track history